Time;durP1;ratioP1;P1;durP2;ratioP2;P2;SDS_P1;SDS_P2;PMS_P1;PMS_P2;Temp;Humidity;BMP_temperature;BMP_pressure;BME280_temperature;BME280_humidity;BME280_pressure;Samples;Min_cycle;Max_cycle;Signal;HPM_P1;HPM_P2
2022/09/26 00:00:41;;;;;;;10.48;9.85;;;;;;;;;;4972732;28;20030;-65
2022/09/26 00:03:07;;;;;;;10.40;9.80;;;;;;;;;;4979915;28;20022;-66
2022/09/26 00:05:33;;;;;;;11.02;10.32;;;;;;;;;;4976878;28;20026;-66
2022/09/26 00:07:58;;;;;;;11.38;10.68;;;;;;;;;;4976836;28;20052;-65
2022/09/26 00:10:24;;;;;;;11.60;10.90;;;;;;;;;;4977260;28;20170;-65
2022/09/26 00:12:49;;;;;;;11.05;10.35;;;;;;;;;;4974110;28;20445;-66
2022/09/26 00:15:14;;;;;;;11.18;10.48;;;;;;;;;;4975792;28;20472;-66
2022/09/26 00:17:40;;;;;;;10.50;9.85;;;;;;;;;;4977262;28;20393;-65
2022/09/26 00:20:05;;;;;;;11.88;11.02;;;;;;;;;;4974885;28;20034;-65
2022/09/26 00:22:31;;;;;;;10.63;9.93;;;;;;;;;;4975877;28;20114;-65
2022/09/26 00:24:56;;;;;;;10.23;9.63;;;;;;;;;;4976294;28;20526;-65
2022/09/26 00:27:21;;;;;;;9.65;9.05;;;;;;;;;;4992072;28;20023;-66
2022/09/26 00:29:47;;;;;;;10.68;10.02;;;;;;;;;;4976739;28;20650;-65
2022/09/26 00:32:12;;;;;;;11.38;10.68;;;;;;;;;;4974390;28;20109;-65
2022/09/26 00:34:38;;;;;;;11.52;10.82;;;;;;;;;;4992058;28;20593;-66
2022/09/26 00:37:03;;;;;;;11.93;11.18;;;;;;;;;;4978150;28;20053;-65
2022/09/26 00:39:28;;;;;;;11.15;10.45;;;;;;;;;;4976080;28;20027;-65
2022/09/26 00:41:54;;;;;;;10.93;10.25;;;;;;;;;;4973583;28;20053;-66
2022/09/26 00:44:43;;;;;;;10.85;10.15;;;;;;;;;;4975867;28;20037;-65
2022/09/26 00:47:58;;;;;;;10.80;10.10;;;;;;;;;;4974297;28;20049;-66
2022/09/26 00:50:44;;;;;;;9.82;9.23;;;;;;;;;;4935108;29;20257;-65
2022/09/26 00:53:19;;;;;;;9.68;9.02;;;;;;;;;;4935211;29;20535;-66
2022/09/26 00:55:50;;;;;;;9.85;9.25;;;;;;;;;;4963654;28;20069;-65
2022/09/26 00:58:37;;;;;;;10.38;9.70;;;;;;;;;;4979493;28;20106;-65
2022/09/26 01:01:03;;;;;;;9.93;9.32;;;;;;;;;;4972226;28;20432;-66
2022/09/26 01:03:30;;;;;;;10.48;9.77;;;;;;;;;;4976492;28;20342;-65
2022/09/26 01:05:57;;;;;;;11.75;10.95;;;;;;;;;;4975755;28;20034;-67
2022/09/26 01:08:30;;;;;;;11.10;10.30;;;;;;;;;;4975482;28;20035;-66
2022/09/26 01:10:57;;;;;;;11.73;11.02;;;;;;;;;;4974076;28;20079;-65
2022/09/26 01:13:24;;;;;;;10.82;10.15;;;;;;;;;;4978105;28;20062;-65
2022/09/26 01:15:49;;;;;;;9.50;8.90;;;;;;;;;;4973302;28;20386;-65
2022/09/26 01:18:15;;;;;;;9.43;8.82;;;;;;;;;;4975888;28;20041;-65
2022/09/26 01:20:58;;;;;;;11.38;10.68;;;;;;;;;;4976880;28;20116;-65
2022/09/26 01:23:34;;;;;;;10.80;10.00;;;;;;;;;;4972921;28;20027;-65
2022/09/26 01:26:21;;;;;;;10.20;9.60;;;;;;;;;;4974494;28;20045;-66
2022/09/26 01:29:27;;;;;;;10.57;9.88;;;;;;;;;;4975646;28;20143;-65
2022/09/26 01:35:18;;;;;;;10.23;9.63;;;;;;;;;;4976999;28;21594;-66
2022/09/26 01:38:04;;;;;;;10.15;9.55;;;;;;;;;;4981073;28;20034;-65
2022/09/26 01:40:33;;;;;;;10.65;9.68;;;;;;;;;;4977200;28;20033;-65
2022/09/26 01:43:19;;;;;;;10.20;9.52;;;;;;;;;;4992664;28;20090;-65
2022/09/26 01:45:57;;;;;;;10.10;9.45;;;;;;;;;;4982142;28;20350;-65
2022/09/26 01:48:47;;;;;;;8.95;8.35;;;;;;;;;;4980761;28;20027;-65
2022/09/26 01:51:22;;;;;;;9.57;8.98;;;;;;;;;;4981829;28;20044;-66
2022/09/26 01:53:55;;;;;;;9.65;9.05;;;;;;;;;;4979316;28;20039;-66
2022/09/26 01:56:26;;;;;;;10.50;9.80;;;;;;;;;;4995077;28;20369;-66
2022/09/26 01:58:57;;;;;;;9.23;8.63;;;;;;;;;;4981504;28;20215;-65
2022/09/26 02:01:26;;;;;;;9.98;9.38;;;;;;;;;;4982256;28;20110;-66
2022/09/26 02:03:55;;;;;;;10.23;9.52;;;;;;;;;;4978762;28;20026;-66
2022/09/26 02:06:33;;;;;;;10.15;9.45;;;;;;;;;;4979295;28;20056;-66
2022/09/26 02:09:07;;;;;;;9.63;9.02;;;;;;;;;;4979563;28;20113;-66
2022/09/26 02:11:36;;;;;;;9.80;9.15;;;;;;;;;;4979557;28;20034;-66
2022/09/26 02:14:05;;;;;;;10.60;9.90;;;;;;;;;;4980111;28;20480;-65
2022/09/26 02:16:59;;;;;;;11.05;10.35;;;;;;;;;;4980411;28;20053;-65
2022/09/26 02:19:32;;;;;;;8.73;8.18;;;;;;;;;;4978035;28;20034;-65
2022/09/26 02:21:59;;;;;;;9.95;9.35;;;;;;;;;;4978905;28;20034;-65
2022/09/26 02:24:25;;;;;;;11.75;10.90;;;;;;;;;;4979794;28;20303;-65
2022/09/26 02:26:51;;;;;;;11.15;10.45;;;;;;;;;;4977501;28;20066;-65
2022/09/26 02:29:19;;;;;;;10.63;9.82;;;;;;;;;;4979399;28;20038;-65
2022/09/26 02:32:14;;;;;;;9.82;9.13;;;;;;;;;;4979858;28;20050;-66
2022/09/26 02:34:41;;;;;;;9.05;8.45;;;;;;;;;;4979887;28;20393;-66
2022/09/26 02:37:07;;;;;;;10.10;9.40;;;;;;;;;;4980457;28;20061;-66
2022/09/26 02:39:33;;;;;;;9.00;8.40;;;;;;;;;;4977793;28;20064;-65
2022/09/26 02:42:23;;;;;;;9.13;8.52;;;;;;;;;;4977282;28;20046;-66
2022/09/26 02:45:37;;;;;;;9.68;9.07;;;;;;;;;;4975291;28;20019;-66
2022/09/26 02:48:38;;;;;;;9.18;8.57;;;;;;;;;;4938847;28;20561;-66
2022/09/26 02:51:43;;;;;;;9.90;9.23;;;;;;;;;;4979290;28;20133;-66
2022/09/26 02:54:17;;;;;;;9.50;8.80;;;;;;;;;;4980064;28;20037;-66
2022/09/26 02:56:54;;;;;;;8.15;7.65;;;;;;;;;;4981276;28;20054;-65
2022/09/26 02:59:35;;;;;;;8.68;8.07;;;;;;;;;;4979984;28;20034;-65
2022/09/26 03:02:17;;;;;;;8.50;8.00;;;;;;;;;;4978518;28;20043;-66
2022/09/26 03:05:02;;;;;;;8.82;8.20;;;;;;;;;;4977227;28;20087;-67
2022/09/26 03:07:33;;;;;;;8.15;7.47;;;;;;;;;;4977677;28;20488;-66
2022/09/26 03:10:02;;;;;;;8.82;8.23;;;;;;;;;;4992916;28;20220;-66
2022/09/26 03:12:30;;;;;;;7.90;7.40;;;;;;;;;;4976102;28;20512;-65
2022/09/26 03:14:58;;;;;;;8.82;8.13;;;;;;;;;;4976502;28;20104;-66
2022/09/26 03:17:27;;;;;;;7.95;7.38;;;;;;;;;;4978095;28;20392;-66
2022/09/26 03:19:58;;;;;;;10.32;9.32;;;;;;;;;;4978974;28;20385;-66
2022/09/26 03:22:24;;;;;;;8.40;7.80;;;;;;;;;;4976767;28;20096;-66
2022/09/26 03:24:50;;;;;;;8.68;8.07;;;;;;;;;;4976666;28;20421;-66
2022/09/26 03:27:16;;;;;;;8.57;7.97;;;;;;;;;;4977253;28;20045;-67
2022/09/26 03:29:42;;;;;;;8.38;7.78;;;;;;;;;;4976986;28;20127;-65
2022/09/26 03:32:08;;;;;;;9.13;8.52;;;;;;;;;;4976770;28;20038;-66
2022/09/26 03:34:34;;;;;;;8.40;7.80;;;;;;;;;;4975641;28;20046;-65
2022/09/26 03:36:59;;;;;;;9.07;8.48;;;;;;;;;;4978275;28;20027;-66
2022/09/26 03:39:24;;;;;;;8.75;8.07;;;;;;;;;;4977872;28;20034;-65
2022/09/26 03:41:50;;;;;;;8.43;7.82;;;;;;;;;;4981724;28;20504;-66
2022/09/26 03:44:16;;;;;;;8.43;7.82;;;;;;;;;;4981779;28;20050;-66
2022/09/26 03:46:45;;;;;;;7.90;7.30;;;;;;;;;;4982300;28;20038;-66
2022/09/26 03:49:11;;;;;;;7.63;7.13;;;;;;;;;;4980242;28;20042;-65
2022/09/26 03:51:36;;;;;;;7.85;7.35;;;;;;;;;;4976456;28;20027;-65
2022/09/26 03:54:02;;;;;;;7.65;7.13;;;;;;;;;;4974582;28;20104;-66
2022/09/26 03:56:27;;;;;;;8.93;8.32;;;;;;;;;;4977503;28;20027;-65
2022/09/26 03:58:53;;;;;;;7.55;7.05;;;;;;;;;;4975860;28;20058;-65
2022/09/26 04:01:20;;;;;;;8.63;7.93;;;;;;;;;;4992631;28;20508;-65
2022/09/26 04:03:47;;;;;;;9.60;8.25;;;;;;;;;;4975585;28;20026;-66
2022/09/26 04:06:18;;;;;;;7.70;7.20;;;;;;;;;;4976521;28;20665;-65
2022/09/26 04:08:46;;;;;;;8.98;8.38;;;;;;;;;;4988156;28;20038;-65
2022/09/26 04:11:14;;;;;;;8.77;8.18;;;;;;;;;;4976698;28;20182;-65
2022/09/26 04:13:40;;;;;;;9.23;8.35;;;;;;;;;;4976609;28;20339;-65
2022/09/26 04:16:06;;;;;;;8.18;7.57;;;;;;;;;;4978094;28;20070;-65
2022/09/26 04:18:33;;;;;;;8.45;7.85;;;;;;;;;;4976876;28;20035;-65
2022/09/26 04:21:07;;;;;;;8.75;8.15;;;;;;;;;;4979019;28;20161;-65
2022/09/26 04:23:34;;;;;;;8.38;7.80;;;;;;;;;;4979119;28;20038;-65
2022/09/26 04:26:17;;;;;;;8.10;7.53;;;;;;;;;;4974072;28;20026;-65
2022/09/26 04:28:45;;;;;;;8.13;7.63;;;;;;;;;;4974392;28;20485;-65
2022/09/26 04:31:11;;;;;;;8.05;7.55;;;;;;;;;;4976366;28;20708;-65
2022/09/26 04:33:38;;;;;;;8.55;7.95;;;;;;;;;;4978206;28;20030;-65
2022/09/26 04:36:10;;;;;;;8.38;7.78;;;;;;;;;;4979050;28;20656;-62
2022/09/26 04:38:36;;;;;;;8.05;7.40;;;;;;;;;;4975971;28;20027;-63
2022/09/26 04:41:07;;;;;;;7.90;7.30;;;;;;;;;;4976548;28;20023;-63
2022/09/26 04:43:32;;;;;;;8.98;8.38;;;;;;;;;;4976046;28;20421;-63
2022/09/26 04:45:58;;;;;;;7.43;6.93;;;;;;;;;;4977452;28;20038;-63
2022/09/26 04:48:23;;;;;;;8.63;8.02;;;;;;;;;;4977591;28;20033;-63
2022/09/26 04:50:49;;;;;;;8.07;7.47;;;;;;;;;;4976907;28;20046;-62
2022/09/26 04:53:16;;;;;;;8.55;7.95;;;;;;;;;;4976805;28;20559;-63
2022/09/26 04:55:45;;;;;;;8.20;7.65;;;;;;;;;;4978886;28;20034;-62
2022/09/26 04:58:12;;;;;;;8.70;8.10;;;;;;;;;;4977023;28;20027;-63
2022/09/26 05:00:48;;;;;;;8.60;8.00;;;;;;;;;;4978190;28;20056;-62
2022/09/26 05:03:14;;;;;;;8.77;8.02;;;;;;;;;;4975773;28;20046;-62
2022/09/26 05:05:40;;;;;;;7.03;6.53;;;;;;;;;;4974868;28;20031;-62
2022/09/26 05:08:06;;;;;;;8.75;8.10;;;;;;;;;;4976159;28;20927;-62
2022/09/26 05:10:32;;;;;;;7.45;6.95;;;;;;;;;;4975581;28;20045;-62
2022/09/26 05:12:58;;;;;;;8.65;7.97;;;;;;;;;;4974600;28;20030;-62
2022/09/26 05:15:24;;;;;;;8.05;7.45;;;;;;;;;;4973802;28;20027;-62
2022/09/26 05:17:58;;;;;;;9.35;8.70;;;;;;;;;;4978504;28;20094;-65
2022/09/26 05:20:28;;;;;;;8.40;7.80;;;;;;;;;;4980372;28;20042;-65
2022/09/26 05:22:57;;;;;;;8.65;8.10;;;;;;;;;;4975530;28;20042;-65
2022/09/26 05:28:07;;;;;;;7.95;7.45;;;;;;;;;;4975542;28;20109;-65
2022/09/26 05:30:34;;;;;;;20.52;8.35;;;;;;;;;;4975115;28;20405;-64
2022/09/26 05:32:59;;;;;;;9.25;8.55;;;;;;;;;;4975147;28;20042;-64
2022/09/26 05:35:24;;;;;;;9.77;9.13;;;;;;;;;;4978139;28;20034;-65
2022/09/26 05:37:58;;;;;;;8.70;8.10;;;;;;;;;;4975738;28;20497;-66
2022/09/26 05:43:07;;;;;;;9.38;8.68;;;;;;;;;;4978272;28;20030;-66
2022/09/26 05:45:32;;;;;;;8.73;8.13;;;;;;;;;;4975887;28;20025;-65
2022/09/26 05:47:58;;;;;;;9.02;8.43;;;;;;;;;;4977308;28;20030;-64
2022/09/26 05:50:24;;;;;;;7.82;7.32;;;;;;;;;;4978364;28;20045;-63
2022/09/26 05:52:49;;;;;;;8.52;7.93;;;;;;;;;;4975157;28;20518;-65
2022/09/26 05:55:15;;;;;;;9.57;8.88;;;;;;;;;;4977708;28;20049;-65
2022/09/26 05:57:49;;;;;;;8.00;7.50;;;;;;;;;;4975605;28;20296;-66
2022/09/26 06:00:15;;;;;;;10.23;9.48;;;;;;;;;;4979116;28;20035;-67
2022/09/26 06:02:40;;;;;;;8.35;7.75;;;;;;;;;;4975717;28;20052;-66
2022/09/26 06:05:06;;;;;;;10.27;9.48;;;;;;;;;;4975159;28;20022;-66
2022/09/26 06:07:31;;;;;;;9.35;8.73;;;;;;;;;;4975045;28;20030;-66
2022/09/26 06:09:57;;;;;;;10.05;9.32;;;;;;;;;;4977903;28;20356;-67
2022/09/26 06:12:25;;;;;;;9.65;9.05;;;;;;;;;;4977426;28;20022;-66
2022/09/26 06:14:51;;;;;;;8.80;8.20;;;;;;;;;;4982572;28;20103;-63
2022/09/26 06:17:17;;;;;;;8.60;8.00;;;;;;;;;;4973440;28;20101;-62
2022/09/26 06:19:43;;;;;;;9.98;8.98;;;;;;;;;;4991077;28;20046;-63
2022/09/26 06:22:08;;;;;;;9.63;8.82;;;;;;;;;;4991198;28;20117;-63
2022/09/26 06:24:34;;;;;;;8.82;8.23;;;;;;;;;;4979014;28;20037;-63
2022/09/26 06:26:59;;;;;;;9.68;8.98;;;;;;;;;;4978944;28;20110;-62
2022/09/26 06:29:25;;;;;;;9.50;8.90;;;;;;;;;;4980786;28;20392;-63
2022/09/26 06:31:50;;;;;;;9.07;8.48;;;;;;;;;;4982383;28;20027;-62
2022/09/26 06:34:15;;;;;;;8.95;8.35;;;;;;;;;;4981804;28;20569;-62
2022/09/26 06:36:41;;;;;;;8.75;8.15;;;;;;;;;;4982571;28;20500;-63
2022/09/26 06:39:07;;;;;;;8.98;8.38;;;;;;;;;;4979716;28;20077;-62
2022/09/26 06:41:33;;;;;;;8.40;7.80;;;;;;;;;;4979995;28;20491;-62
2022/09/26 06:44:01;;;;;;;9.55;8.82;;;;;;;;;;4981666;28;20635;-62
2022/09/26 06:46:27;;;;;;;9.35;8.60;;;;;;;;;;4979148;28;20023;-62
2022/09/26 06:48:52;;;;;;;9.18;8.57;;;;;;;;;;4978535;28;20034;-62
2022/09/26 06:51:18;;;;;;;9.60;9.00;;;;;;;;;;4980495;28;20042;-64
2022/09/26 06:53:44;;;;;;;10.38;9.68;;;;;;;;;;4980470;28;20547;-62
2022/09/26 06:56:10;;;;;;;10.70;10.00;;;;;;;;;;4979034;28;20023;-62
2022/09/26 06:58:36;;;;;;;11.65;10.65;;;;;;;;;;4979828;28;20429;-62
2022/09/26 07:01:02;;;;;;;10.40;9.77;;;;;;;;;;4978082;28;20060;-62
2022/09/26 07:03:28;;;;;;;11.95;11.25;;;;;;;;;;4980795;28;20038;-63
2022/09/26 07:05:57;;;;;;;11.23;10.52;;;;;;;;;;4978593;28;20030;-63
2022/09/26 07:08:24;;;;;;;11.98;11.25;;;;;;;;;;4984682;28;20097;-63
2022/09/26 07:10:50;;;;;;;13.65;12.75;;;;;;;;;;4981045;28;20523;-62
2022/09/26 07:13:19;;;;;;;13.13;12.32;;;;;;;;;;4983121;28;20484;-61
2022/09/26 07:15:44;;;;;;;13.95;13.15;;;;;;;;;;4978786;28;20069;-63
2022/09/26 07:18:10;;;;;;;14.85;13.95;;;;;;;;;;4977491;28;20031;-62
2022/09/26 07:20:45;;;;;;;14.75;13.75;;;;;;;;;;4977550;28;20279;-63
2022/09/26 07:23:11;;;;;;;13.88;12.82;;;;;;;;;;4979733;28;20052;-62
2022/09/26 07:25:40;;;;;;;12.40;11.60;;;;;;;;;;4978532;28;20035;-63
2022/09/26 07:28:06;;;;;;;15.52;14.52;;;;;;;;;;4978415;28;20045;-63
2022/09/26 07:30:32;;;;;;;13.55;12.65;;;;;;;;;;4978488;28;20071;-62
2022/09/26 07:33:01;;;;;;;12.77;11.77;;;;;;;;;;4979445;28;21187;-62
2022/09/26 07:35:28;;;;;;;11.10;10.40;;;;;;;;;;4979864;28;20474;-62
2022/09/26 07:37:53;;;;;;;8.02;7.38;;;;;;;;;;4980100;28;20034;-61
2022/09/26 07:40:19;;;;;;;8.25;7.50;;;;;;;;;;4979261;28;20034;-61
2022/09/26 07:42:45;;;;;;;7.53;7.03;;;;;;;;;;4978466;28;20103;-63
2022/09/26 07:45:11;;;;;;;6.80;6.30;;;;;;;;;;4979224;28;20038;-62
2022/09/26 07:50:21;;;;;;;8.25;7.57;;;;;;;;;;4980634;28;20487;-62
2022/09/26 07:52:48;;;;;;;7.53;7.03;;;;;;;;;;4981139;28;20049;-63
2022/09/26 07:55:17;;;;;;;8.63;7.97;;;;;;;;;;4980427;28;20308;-62
2022/09/26 07:57:43;;;;;;;7.85;7.28;;;;;;;;;;4979122;28;20092;-61
2022/09/26 08:00:13;;;;;;;8.55;7.85;;;;;;;;;;4977954;28;20034;-63
2022/09/26 08:02:41;;;;;;;7.93;7.43;;;;;;;;;;4981337;28;20034;-63
2022/09/26 08:05:08;;;;;;;9.30;8.60;;;;;;;;;;4980475;28;20394;-64
2022/09/26 08:07:36;;;;;;;9.10;8.50;;;;;;;;;;4978713;28;20051;-63
2022/09/26 08:10:06;;;;;;;8.70;8.10;;;;;;;;;;4981642;28;20590;-63
2022/09/26 08:12:36;;;;;;;9.20;8.60;;;;;;;;;;4976595;28;20062;-62
2022/09/26 08:15:05;;;;;;;8.60;8.00;;;;;;;;;;4976794;28;20459;-63
2022/09/26 08:17:31;;;;;;;9.30;8.70;;;;;;;;;;4977569;28;20227;-63
2022/09/26 08:19:57;;;;;;;10.73;10.02;;;;;;;;;;4976486;28;20360;-63
2022/09/26 08:22:22;;;;;;;11.77;11.07;;;;;;;;;;4981015;28;20469;-63
2022/09/26 08:24:49;;;;;;;8.00;7.40;;;;;;;;;;4980835;28;20053;-63
2022/09/26 08:27:14;;;;;;;8.52;7.93;;;;;;;;;;4976024;28;20039;-63
2022/09/26 08:29:40;;;;;;;8.43;7.82;;;;;;;;;;4975789;28;20240;-63
2022/09/26 08:32:06;;;;;;;7.40;6.90;;;;;;;;;;4977530;28;20312;-63
2022/09/26 08:34:33;;;;;;;10.90;10.07;;;;;;;;;;4976330;28;20117;-64
2022/09/26 08:36:59;;;;;;;9.20;8.60;;;;;;;;;;4975960;28;20398;-63
2022/09/26 08:39:24;;;;;;;9.10;8.48;;;;;;;;;;4977595;28;20263;-64
2022/09/26 08:42:22;;;;;;;8.93;8.32;;;;;;;;;;4973043;28;20042;-64
2022/09/26 08:46:12;;;;;;;10.95;10.25;;;;;;;;;;4975061;28;20045;-64
2022/09/26 08:47:53;;;;;;;9.07;8.43;;;;;;;;;;4975179;28;20121;-64
2022/09/26 08:50:45;;;;;;;8.15;7.55;;;;;;;;;;4974864;28;20433;-64
2022/09/26 08:53:30;;;;;;;7.40;6.90;;;;;;;;;;4980705;28;20061;-64
2022/09/26 08:55:57;;;;;;;8.20;7.60;;;;;;;;;;4975930;28;20039;-64
2022/09/26 08:58:26;;;;;;;7.60;7.10;;;;;;;;;;4976364;28;20037;-64
2022/09/26 09:00:59;;;;;;;7.43;6.93;;;;;;;;;;4977072;28;20496;-64
2022/09/26 09:03:46;;;;;;;7.85;7.25;;;;;;;;;;4978042;28;20063;-64
2022/09/26 09:06:13;;;;;;;8.00;7.47;;;;;;;;;;4978202;28;20247;-64
2022/09/26 09:08:50;;;;;;;10.50;9.75;;;;;;;;;;4980314;28;20081;-64
2022/09/26 09:11:43;;;;;;;7.82;7.32;;;;;;;;;;4978009;28;20030;-64
2022/09/26 09:14:43;;;;;;;7.97;7.47;;;;;;;;;;4973319;28;20041;-64
2022/09/26 09:17:37;;;;;;;7.95;7.35;;;;;;;;;;4977531;28;20113;-64
2022/09/26 09:20:21;;;;;;;7.57;7.07;;;;;;;;;;4978671;28;20333;-64
2022/09/26 09:23:16;;;;;;;7.70;7.20;;;;;;;;;;4974677;28;20085;-64
2022/09/26 09:25:47;;;;;;;6.50;6.00;;;;;;;;;;4977816;28;20026;-65
2022/09/26 09:28:32;;;;;;;6.93;6.43;;;;;;;;;;4980725;28;20114;-65
2022/09/26 09:31:07;;;;;;;6.88;6.38;;;;;;;;;;4994411;28;20652;-65
2022/09/26 09:33:40;;;;;;;7.35;6.85;;;;;;;;;;4975721;28;20057;-66
2022/09/26 09:36:13;;;;;;;6.22;5.82;;;;;;;;;;4975008;28;20041;-64
2022/09/26 09:38:44;;;;;;;6.47;5.97;;;;;;;;;;4975677;28;20496;-65
2022/09/26 09:41:13;;;;;;;6.32;5.85;;;;;;;;;;4975241;28;20059;-65
2022/09/26 09:43:53;;;;;;;7.65;6.10;;;;;;;;;;4975366;28;20511;-65
2022/09/26 09:46:29;;;;;;;6.65;6.15;;;;;;;;;;4977713;28;20058;-65
2022/09/26 09:49:09;;;;;;;6.60;6.13;;;;;;;;;;4976915;28;20030;-64
2022/09/26 09:51:43;;;;;;;7.03;6.53;;;;;;;;;;4991663;28;20042;-64
2022/09/26 09:54:36;;;;;;;6.65;6.18;;;;;;;;;;4976846;28;20042;-64
2022/09/26 09:57:39;;;;;;;6.50;6.00;;;;;;;;;;4975861;28;20035;-64
2022/09/26 10:00:14;;;;;;;7.35;6.85;;;;;;;;;;4996650;28;20050;-64
2022/09/26 10:02:50;;;;;;;7.25;6.65;;;;;;;;;;4982633;28;20042;-64
2022/09/26 10:05:24;;;;;;;6.95;6.45;;;;;;;;;;4983127;28;20503;-64
2022/09/26 10:07:56;;;;;;;6.95;6.45;;;;;;;;;;4981523;28;20041;-63
2022/09/26 10:10:32;;;;;;;6.90;6.40;;;;;;;;;;4979545;28;20061;-64
2022/09/26 10:12:57;;;;;;;7.20;6.53;;;;;;;;;;4978681;28;20053;-64
2022/09/26 10:15:26;;;;;;;6.47;5.97;;;;;;;;;;4966599;28;20026;-64
2022/09/26 10:18:05;;;;;;;6.78;6.28;;;;;;;;;;4978449;28;20041;-62
2022/09/26 10:20:51;;;;;;;7.10;6.60;;;;;;;;;;4979100;28;20038;-64
2022/09/26 10:23:30;;;;;;;7.07;6.50;;;;;;;;;;4975907;28;20062;-65
2022/09/26 10:26:01;;;;;;;7.40;6.13;;;;;;;;;;4977765;28;20069;-65
2022/09/26 10:28:43;;;;;;;6.45;6.05;;;;;;;;;;4978383;28;20034;-66
2022/09/26 10:31:10;;;;;;;6.85;6.35;;;;;;;;;;4978017;28;20121;-65
2022/09/26 10:33:42;;;;;;;7.03;6.53;;;;;;;;;;4976992;28;20097;-66
2022/09/26 10:36:07;;;;;;;8.48;6.55;;;;;;;;;;4978520;28;20038;-67
2022/09/26 10:40:43;;;;;;;6.32;5.88;;;;;;;;;;4978532;28;20121;-66
2022/09/26 10:41:24;;;;;;;6.93;6.43;;;;;;;;;;4982319;28;20038;-65
2022/09/26 10:43:53;;;;;;;6.00;5.60;;;;;;;;;;4977646;28;20432;-66
2022/09/26 10:46:22;;;;;;;6.85;6.35;;;;;;;;;;4977558;28;20061;-67
2022/09/26 10:49:01;;;;;;;5.95;5.55;;;;;;;;;;4978532;28;20031;-67
2022/09/26 10:51:43;;;;;;;6.25;5.75;;;;;;;;;;4993419;28;20415;-64
2022/09/26 10:54:11;;;;;;;6.88;6.38;;;;;;;;;;4978175;28;20386;-65
2022/09/26 10:56:42;;;;;;;7.03;6.53;;;;;;;;;;4977685;28;20027;-65
2022/09/26 10:59:09;;;;;;;5.65;5.25;;;;;;;;;;4978477;28;20035;-65
2022/09/26 11:01:41;;;;;;;6.40;6.00;;;;;;;;;;4978682;28;20067;-65
2022/09/26 11:07:24;;;;;;;5.93;5.53;;;;;;;;;;4977756;28;20512;-64
2022/09/26 11:09:51;;;;;;;7.20;6.63;;;;;;;;;;4990693;28;20050;-64
2022/09/26 11:12:25;;;;;;;8.35;7.82;;;;;;;;;;4979066;28;20461;-65
2022/09/26 11:14:59;;;;;;;9.52;8.93;;;;;;;;;;4974681;28;20039;-64
2022/09/26 11:17:46;;;;;;;7.72;7.22;;;;;;;;;;4978375;28;20027;-64
2022/09/26 11:20:19;;;;;;;8.25;7.70;;;;;;;;;;4977978;28;20041;-64
2022/09/26 11:23:02;;;;;;;8.45;7.90;;;;;;;;;;4995489;28;20049;-64
2022/09/26 11:25:47;;;;;;;10.52;9.82;;;;;;;;;;4978271;28;20559;-64
2022/09/26 11:28:33;;;;;;;8.15;7.65;;;;;;;;;;4979555;28;20043;-64
2022/09/26 11:31:04;;;;;;;10.88;10.18;;;;;;;;;;4978903;28;20045;-65
2022/09/26 11:33:30;;;;;;;8.43;7.78;;;;;;;;;;4975628;28;20038;-66
2022/09/26 11:35:57;;;;;;;8.43;7.88;;;;;;;;;;4974412;28;20105;-66
2022/09/26 11:38:48;;;;;;;9.90;9.23;;;;;;;;;;4977292;28;20036;-65
2022/09/26 11:41:38;;;;;;;8.05;7.55;;;;;;;;;;4978500;28;20042;-66
2022/09/26 11:44:20;;;;;;;7.97;7.47;;;;;;;;;;4979834;28;20049;-66
2022/09/26 11:46:54;;;;;;;9.38;8.77;;;;;;;;;;4979243;28;20360;-67
2022/09/26 11:49:44;;;;;;;7.80;7.25;;;;;;;;;;4978726;28;20038;-67
2022/09/26 11:52:23;;;;;;;7.25;6.75;;;;;;;;;;4978458;28;20030;-65
2022/09/26 11:55:03;;;;;;;6.93;6.43;;;;;;;;;;4977857;28;20133;-64
2022/09/26 11:57:43;;;;;;;7.70;7.20;;;;;;;;;;4979427;28;20035;-65
2022/09/26 12:00:26;;;;;;;11.57;10.88;;;;;;;;;;4979154;28;20022;-65
2022/09/26 12:03:03;;;;;;;13.15;12.38;;;;;;;;;;4979406;28;20069;-64
2022/09/26 12:05:41;;;;;;;17.98;16.98;;;;;;;;;;4978148;28;20019;-64
2022/09/26 12:08:15;;;;;;;13.57;12.70;;;;;;;;;;4979087;28;20125;-64
2022/09/26 12:10:49;;;;;;;12.80;12.02;;;;;;;;;;4979464;28;20035;-66
2022/09/26 12:13:33;;;;;;;12.85;12.05;;;;;;;;;;4977990;28;20049;-65
2022/09/26 12:16:13;;;;;;;15.30;14.40;;;;;;;;;;4977760;28;20038;-66
2022/09/26 12:18:58;;;;;;;14.00;13.10;;;;;;;;;;4982473;28;20121;-66
2022/09/26 12:21:37;;;;;;;10.07;9.48;;;;;;;;;;4976302;28;20034;-66
2022/09/26 12:24:22;;;;;;;9.27;8.68;;;;;;;;;;4975206;28;20039;-66
2022/09/26 12:27:10;;;;;;;10.45;9.85;;;;;;;;;;4973876;28;20030;-66
2022/09/26 12:30:01;;;;;;;12.07;11.38;;;;;;;;;;4992481;28;20034;-65
2022/09/26 12:32:46;;;;;;;14.70;13.90;;;;;;;;;;4975935;28;20026;-64
2022/09/26 12:35:28;;;;;;;12.88;12.15;;;;;;;;;;4977806;28;20173;-66
2022/09/26 12:38:34;;;;;;;12.70;11.95;;;;;;;;;;4974207;28;20091;-66
2022/09/26 12:41:03;;;;;;;11.60;10.90;;;;;;;;;;4959941;28;20046;-66
2022/09/26 12:43:28;;;;;;;12.15;11.35;;;;;;;;;;4976718;28;20414;-66
2022/09/26 12:46:20;;;;;;;13.73;12.90;;;;;;;;;;4976270;28;20026;-66
2022/09/26 12:49:13;;;;;;;13.52;12.73;;;;;;;;;;4963715;28;20047;-66
2022/09/26 12:51:51;;;;;;;11.50;10.70;;;;;;;;;;4976419;28;20035;-65
2022/09/26 12:54:40;;;;;;;9.60;9.00;;;;;;;;;;4979588;28;20516;-65
2022/09/26 12:57:09;;;;;;;12.25;11.55;;;;;;;;;;4976919;28;20125;-65
2022/09/26 12:59:40;;;;;;;10.13;9.52;;;;;;;;;;4976771;28;20342;-66
2022/09/26 13:02:34;;;;;;;8.70;8.10;;;;;;;;;;4976872;28;20062;-66
2022/09/26 13:05:31;;;;;;;7.18;6.68;;;;;;;;;;4976106;28;20035;-66
2022/09/26 13:08:14;;;;;;;6.00;5.60;;;;;;;;;;4975169;28;20092;-66
2022/09/26 13:10:58;;;;;;;7.38;6.88;;;;;;;;;;4976303;28;20031;-67
2022/09/26 13:13:54;;;;;;;13.95;6.28;;;;;;;;;;4977599;28;20026;-66
2022/09/26 13:16:43;;;;;;;7.00;6.50;;;;;;;;;;4976201;28;20061;-66
2022/09/26 13:19:25;;;;;;;6.55;6.13;;;;;;;;;;4975721;28;20066;-65
2022/09/26 13:22:02;;;;;;;7.18;6.68;;;;;;;;;;4978689;28;20348;-65
2022/09/26 13:24:49;;;;;;;7.25;6.75;;;;;;;;;;4975842;28;20042;-65
2022/09/26 13:27:21;;;;;;;7.80;7.30;;;;;;;;;;4974921;28;20039;-65
2022/09/26 13:29:57;;;;;;;8.48;7.90;;;;;;;;;;4976486;28;20022;-65
2022/09/26 13:32:28;;;;;;;8.60;8.00;;;;;;;;;;4974375;28;20034;-65
2022/09/26 13:35:21;;;;;;;7.72;7.22;;;;;;;;;;4974246;28;20038;-65
2022/09/26 13:38:13;;;;;;;8.00;7.50;;;;;;;;;;4975994;28;20042;-65
2022/09/26 13:40:53;;;;;;;8.57;7.97;;;;;;;;;;4976720;28;20039;-65
2022/09/26 13:43:56;;;;;;;7.45;6.95;;;;;;;;;;4978548;28;20039;-65
2022/09/26 13:46:53;;;;;;;7.05;6.55;;;;;;;;;;4978133;28;20125;-65
2022/09/26 13:50:01;;;;;;;7.47;6.97;;;;;;;;;;4976241;28;20076;-66
2022/09/26 13:52:51;;;;;;;6.80;6.30;;;;;;;;;;4974642;28;20041;-65
2022/09/26 13:55:20;;;;;;;6.75;6.25;;;;;;;;;;4974493;28;20117;-65
2022/09/26 13:57:45;;;;;;;7.25;6.75;;;;;;;;;;4973329;28;20049;-66
2022/09/26 14:00:18;;;;;;;7.60;7.10;;;;;;;;;;4974695;28;20034;-66
2022/09/26 14:03:15;;;;;;;6.20;5.80;;;;;;;;;;4977769;28;20030;-66
2022/09/26 14:05:40;;;;;;;5.80;5.40;;;;;;;;;;4975122;28;20027;-65
2022/09/26 14:11:23;;;;;;;6.10;5.60;;;;;;;;;;4976965;28;20390;-70
2022/09/26 14:14:18;;;;;;;6.80;6.30;;;;;;;;;;4984084;28;20033;-67
2022/09/26 14:16:47;;;;;;;6.65;6.15;;;;;;;;;;4978583;28;20042;-66
2022/09/26 14:19:14;;;;;;;7.07;6.57;;;;;;;;;;4981728;28;20040;-66
2022/09/26 14:22:24;;;;;;;6.47;6.07;;;;;;;;;;4978914;28;20026;-66
2022/09/26 14:24:55;;;;;;;6.90;6.40;;;;;;;;;;4972224;28;20041;-65
2022/09/26 14:27:24;;;;;;;6.82;6.32;;;;;;;;;;4976195;28;20452;-66
2022/09/26 14:29:57;;;;;;;6.43;5.93;;;;;;;;;;4973265;28;20038;-67
2022/09/26 14:32:50;;;;;;;6.80;6.30;;;;;;;;;;4973887;28;20034;-67
2022/09/26 14:35:25;;;;;;;5.85;5.45;;;;;;;;;;4975846;28;20456;-65
2022/09/26 14:37:58;;;;;;;7.07;6.57;;;;;;;;;;4977856;28;20101;-67
2022/09/26 14:40:31;;;;;;;6.70;6.22;;;;;;;;;;4973487;28;20396;-66
2022/09/26 14:42:56;;;;;;;6.63;6.13;;;;;;;;;;4977613;28;20027;-66
2022/09/26 14:45:25;;;;;;;7.18;6.68;;;;;;;;;;4978758;28;20046;-66
2022/09/26 14:48:27;;;;;;;7.47;6.97;;;;;;;;;;4977125;28;20035;-67
2022/09/26 14:51:03;;;;;;;6.65;6.20;;;;;;;;;;4979286;28;20465;-66
2022/09/26 14:54:00;;;;;;;7.18;6.68;;;;;;;;;;4979071;28;20089;-65
2022/09/26 14:56:28;;;;;;;7.32;5.72;;;;;;;;;;5001958;28;20057;-65
2022/09/26 14:59:15;;;;;;;7.22;6.72;;;;;;;;;;4978833;28;20034;-66
2022/09/26 15:01:44;;;;;;;6.72;6.22;;;;;;;;;;4979361;28;20046;-66
2022/09/26 15:04:34;;;;;;;6.28;5.78;;;;;;;;;;4982628;28;20458;-66
2022/09/26 15:07:11;;;;;;;5.72;5.32;;;;;;;;;;4981435;28;20054;-67
2022/09/26 15:09:43;;;;;;;6.43;6.03;;;;;;;;;;4987282;28;20026;-64
2022/09/26 15:12:20;;;;;;;5.90;5.50;;;;;;;;;;4983564;28;20380;-66
2022/09/26 15:15:02;;;;;;;6.07;5.68;;;;;;;;;;4980948;28;20047;-64
2022/09/26 15:17:31;;;;;;;7.03;6.45;;;;;;;;;;4980607;28;20037;-66
2022/09/26 15:19:59;;;;;;;6.00;5.60;;;;;;;;;;4978838;28;20117;-66
2022/09/26 15:22:27;;;;;;;6.40;5.90;;;;;;;;;;4976821;28;20034;-66
2022/09/26 15:24:54;;;;;;;6.72;6.22;;;;;;;;;;4978393;28;20476;-65
2022/09/26 15:27:28;;;;;;;6.32;5.93;;;;;;;;;;4976762;28;20431;-66
2022/09/26 15:30:02;;;;;;;7.32;6.82;;;;;;;;;;4987117;28;20037;-65
2022/09/26 15:32:29;;;;;;;6.28;5.80;;;;;;;;;;4980450;28;20044;-66
2022/09/26 15:34:56;;;;;;;6.72;6.22;;;;;;;;;;5000397;28;20070;-66